Time;durP1;ratioP1;P1;durP2;ratioP2;P2;SDS_P1;SDS_P2;PMS_P1;PMS_P2;Temp;Humidity;BMP_temperature;BMP_pressure;BME280_temperature;BME280_humidity;BME280_pressure;Samples;Min_cycle;Max_cycle;Signal;HPM_P1;HPM_P2
2022/06/09 00:02:18;;;;;;;2.42;1.05;;;;;;;18.16;56.69;100012.19;4971823;28;20125;-22
2022/06/09 00:04:44;;;;;;;1.17;1.02;;;;;;;18.10;56.91;100009.84;4988553;28;20072;-22
2022/06/09 00:07:18;;;;;;;1.02;1.00;;;;;;;18.10;56.90;100012.50;4985138;28;20027;-21
2022/06/09 00:09:50;;;;;;;1.20;0.90;;;;;;;18.05;56.85;100013.59;4989248;28;20076;-21
2022/06/09 00:12:16;;;;;;;1.17;1.08;;;;;;;18.03;57.46;100017.25;4986780;28;20076;-22
2022/06/09 00:14:41;;;;;;;2.00;0.98;;;;;;;17.97;57.25;100021.09;4982638;28;20042;-21
2022/06/09 00:17:07;;;;;;;1.75;1.20;;;;;;;17.95;57.35;100020.31;4973918;28;20424;-21
2022/06/09 00:19:32;;;;;;;1.15;1.05;;;;;;;17.90;58.08;100014.34;4967772;28;20027;-21
2022/06/09 00:21:58;;;;;;;1.20;1.10;;;;;;;17.91;58.15;100016.09;4979084;28;20034;-21
2022/06/09 00:24:23;;;;;;;0.88;0.82;;;;;;;17.84;57.97;100015.50;4970404;28;20026;-21
2022/06/09 00:26:49;;;;;;;1.80;1.20;;;;;;;17.80;57.89;100024.59;4987578;28;20516;-21
2022/06/09 00:29:14;;;;;;;0.80;0.80;;;;;;;17.79;57.74;100018.41;4985955;28;20993;-22
2022/06/09 00:31:39;;;;;;;1.75;1.00;;;;;;;17.77;57.74;100011.44;4987130;28;20022;-21
2022/06/09 00:34:05;;;;;;;1.10;1.00;;;;;;;17.72;57.82;100013.47;4989844;28;20097;-22
2022/06/09 00:36:31;;;;;;;2.60;1.27;;;;;;;17.70;57.94;100013.53;4963325;28;20028;-22
2022/06/09 00:38:59;;;;;;;2.38;1.20;;;;;;;17.67;58.12;100014.56;4983484;28;20027;-22
2022/06/09 00:41:26;;;;;;;1.80;1.20;;;;;;;17.64;58.22;100017.38;4983287;28;20544;-21
2022/06/09 00:43:51;;;;;;;1.05;0.90;;;;;;;17.64;58.19;100024.53;4980316;28;20062;-21
2022/06/09 00:46:24;;;;;;;1.02;0.90;;;;;;;17.62;58.07;100016.59;4986503;28;20030;-21
2022/06/09 00:48:52;;;;;;;2.22;1.10;;;;;;;17.59;58.04;100015.88;4973515;28;20173;-22
2022/06/09 00:51:22;;;;;;;1.00;1.00;;;;;;;17.60;57.88;100012.28;4971200;28;20034;-23
2022/06/09 00:53:50;;;;;;;1.08;0.98;;;;;;;17.57;58.09;100021.25;4982392;28;20029;-21
2022/06/09 00:56:15;;;;;;;1.25;0.82;;;;;;;17.53;57.99;100017.91;4972977;28;20038;-21
2022/06/09 00:58:43;;;;;;;1.15;0.93;;;;;;;17.50;58.23;100023.38;4972760;28;20389;-21
2022/06/09 01:01:12;;;;;;;1.70;1.30;;;;;;;17.48;58.32;100022.59;4984587;28;20037;-21
2022/06/09 01:04:04;;;;;;;0.90;0.90;;;;;;;17.46;58.14;100026.25;4984115;28;20031;-21
2022/06/09 01:06:38;;;;;;;1.48;0.95;;;;;;;17.53;58.53;100014.34;4979423;28;20147;-21
2022/06/09 01:09:10;;;;;;;1.98;1.17;;;;;;;17.50;58.18;100023.38;4982005;28;20022;-22
2022/06/09 01:11:35;;;;;;;1.20;1.10;;;;;;;17.45;58.67;100020.09;4970502;28;20050;-21
2022/06/09 01:14:02;;;;;;;3.42;1.00;;;;;;;17.48;58.80;100025.28;4984325;28;20077;-21
2022/06/09 01:16:37;;;;;;;1.08;0.77;;;;;;;17.42;58.54;100026.44;4979149;28;20035;-21
2022/06/09 01:19:35;;;;;;;1.00;0.90;;;;;;;17.39;58.73;100023.03;4965007;28;20034;-22
2022/06/09 01:22:25;;;;;;;1.33;1.10;;;;;;;17.35;58.64;100029.44;4971723;28;20081;-21
2022/06/09 01:25:09;;;;;;;1.13;0.80;;;;;;;17.41;58.73;100029.16;4979083;28;20129;-21
2022/06/09 01:28:06;;;;;;;0.82;0.73;;;;;;;17.32;58.99;100033.13;4981489;28;20492;-22
2022/06/09 01:30:51;;;;;;;1.15;1.05;;;;;;;17.28;58.77;100024.41;4962085;28;20473;-22
2022/06/09 01:33:27;;;;;;;0.98;0.98;;;;;;;17.27;58.81;100025.34;4969547;28;20034;-21
2022/06/09 01:36:09;;;;;;;0.80;0.80;;;;;;;17.30;59.05;100022.53;4970458;28;20080;-21
2022/06/09 01:38:49;;;;;;;1.20;1.10;;;;;;;17.26;58.95;100020.97;4976469;28;20026;-21
2022/06/09 01:41:16;;;;;;;1.13;1.02;;;;;;;17.25;59.22;100019.25;4982652;28;20062;-21
2022/06/09 01:43:44;;;;;;;1.00;0.88;;;;;;;17.26;59.50;100022.75;4982316;28;20205;-22
2022/06/09 01:46:19;;;;;;;1.55;1.05;;;;;;;17.23;59.26;100015.78;4968880;28;20430;-22
2022/06/09 01:48:44;;;;;;;1.33;0.95;;;;;;;17.16;59.30;100019.66;4971652;28;20496;-21
2022/06/09 01:51:13;;;;;;;1.17;1.10;;;;;;;17.11;59.45;100014.53;4985354;28;20030;-21
2022/06/09 01:53:46;;;;;;;1.08;0.90;;;;;;;17.14;59.53;100016.22;4970669;28;20030;-22
2022/06/09 01:56:25;;;;;;;1.67;1.10;;;;;;;17.09;59.57;100019.09;4977651;28;20085;-21
2022/06/09 01:58:55;;;;;;;1.33;1.10;;;;;;;17.04;59.81;100023.75;4965313;28;20031;-21
2022/06/09 02:01:24;;;;;;;0.93;0.88;;;;;;;17.08;59.86;100022.72;4979002;28;20397;-21
2022/06/09 02:03:52;;;;;;;0.75;0.70;;;;;;;17.05;59.91;100022.81;4971701;28;20377;-21
2022/06/09 02:06:19;;;;;;;1.48;1.10;;;;;;;17.02;59.82;100021.16;4971588;28;20034;-21
2022/06/09 02:08:46;;;;;;;0.70;0.70;;;;;;;16.97;59.43;100020.50;4983082;28;20165;-21
2022/06/09 02:11:12;;;;;;;1.70;1.02;;;;;;;16.99;59.74;100028.41;4969276;28;20138;-22
2022/06/09 02:13:41;;;;;;;0.93;0.85;;;;;;;17.01;59.52;100026.56;4971324;28;20045;-21
2022/06/09 02:16:09;;;;;;;0.68;0.68;;;;;;;16.97;59.54;100031.16;4982570;28;20038;-21
2022/06/09 02:18:40;;;;;;;0.90;0.85;;;;;;;16.99;59.52;100028.41;4965228;28;20027;-21
2022/06/09 02:21:19;;;;;;;1.27;0.98;;;;;;;16.92;59.49;100030.50;4964649;28;20027;-21
2022/06/09 02:23:47;;;;;;;5.78;1.15;;;;;;;16.92;59.39;100034.03;4981704;28;20054;-21
2022/06/09 02:26:13;;;;;;;1.58;0.80;;;;;;;16.89;59.63;100034.19;4980347;28;20444;-21
2022/06/09 02:28:38;;;;;;;1.33;0.88;;;;;;;16.89;59.60;100030.63;4978869;28;20480;-22
2022/06/09 02:31:03;;;;;;;1.40;1.00;;;;;;;16.89;59.69;100038.63;4977026;28;20044;-22
2022/06/09 02:33:29;;;;;;;0.75;0.75;;;;;;;16.89;59.79;100041.28;4975318;28;20543;-21
2022/06/09 02:35:54;;;;;;;2.10;1.00;;;;;;;16.86;59.73;100049.41;4978369;28;20539;-21
2022/06/09 02:38:21;;;;;;;0.90;0.90;;;;;;;16.80;59.83;100039.91;4979328;28;20022;-22
2022/06/09 02:40:46;;;;;;;1.27;0.85;;;;;;;16.83;60.09;100041.56;4966108;28;20119;-21
2022/06/09 02:43:13;;;;;;;0.80;0.80;;;;;;;16.77;59.88;100042.69;4979435;28;20129;-22
2022/06/09 02:45:39;;;;;;;0.90;0.90;;;;;;;16.75;60.40;100048.13;4979285;28;20026;-22
2022/06/09 02:48:04;;;;;;;1.15;1.10;;;;;;;16.72;61.17;100045.59;4979234;28;20034;-21
2022/06/09 02:50:31;;;;;;;1.30;0.90;;;;;;;16.68;60.96;100057.31;4976598;28;20524;-22
2022/06/09 02:52:57;;;;;;;1.00;0.95;;;;;;;16.64;61.41;100056.56;4977030;28;20029;-22
2022/06/09 02:55:23;;;;;;;3.38;1.27;;;;;;;16.63;61.56;100062.84;4983078;28;20113;-21
2022/06/09 02:57:48;;;;;;;1.38;0.90;;;;;;;16.63;61.51;100060.19;4976768;28;20102;-21
2022/06/09 03:00:17;;;;;;;1.20;1.10;;;;;;;16.60;61.97;100070.94;4979472;28;20403;-21
2022/06/09 03:02:43;;;;;;;1.70;1.08;;;;;;;16.61;61.65;100062.03;4978490;28;20030;-22
2022/06/09 03:05:10;;;;;;;1.15;1.05;;;;;;;16.59;62.16;100063.03;4967325;28;20069;-21
2022/06/09 03:07:35;;;;;;;1.20;1.10;;;;;;;16.57;62.04;100064.91;4978884;28;20379;-21
2022/06/09 03:10:00;;;;;;;1.65;0.95;;;;;;;16.54;62.05;100065.91;4968369;28;20110;-21
2022/06/09 03:12:26;;;;;;;1.30;1.20;;;;;;;16.53;61.89;100062.38;4970415;28;20472;-21
2022/06/09 03:14:51;;;;;;;1.42;1.25;;;;;;;16.51;62.63;100063.38;4979754;28;20448;-21
2022/06/09 03:17:17;;;;;;;0.98;0.98;;;;;;;16.50;61.95;100057.19;4969501;28;20504;-23
2022/06/09 03:19:42;;;;;;;0.95;0.93;;;;;;;16.52;61.57;100063.31;4960549;28;20041;-21
2022/06/09 03:22:07;;;;;;;1.33;1.00;;;;;;;16.55;61.65;100068.47;4977211;28;22142;-21
2022/06/09 03:24:33;;;;;;;1.10;1.00;;;;;;;16.53;61.46;100064.16;4975515;28;20030;-21
2022/06/09 03:26:58;;;;;;;1.17;1.08;;;;;;;16.47;61.28;100057.31;4982671;28;20600;-22
2022/06/09 03:29:24;;;;;;;1.25;0.88;;;;;;;16.47;61.47;100073.28;4961936;28;20030;-21
2022/06/09 03:31:50;;;;;;;1.00;0.98;;;;;;;16.47;61.75;100075.94;4980901;28;20022;-21
2022/06/09 03:34:15;;;;;;;1.10;1.00;;;;;;;16.47;61.71;100069.78;4982646;28;20117;-22
2022/06/09 03:36:43;;;;;;;1.17;1.08;;;;;;;16.46;61.60;100082.22;4977710;28;20046;-21
2022/06/09 03:39:09;;;;;;;1.23;1.02;;;;;;;16.45;61.52;100087.59;4978973;28;20045;-22
2022/06/09 03:41:34;;;;;;;2.00;1.17;;;;;;;16.42;61.48;100084.16;4975968;28;20030;-22
2022/06/09 03:43:59;;;;;;;1.27;1.20;;;;;;;16.40;61.66;100080.69;4979363;28;20034;-21
2022/06/09 03:46:25;;;;;;;1.35;1.25;;;;;;;16.42;61.74;100089.47;4980995;28;20041;-22
2022/06/09 03:48:50;;;;;;;1.30;1.20;;;;;;;16.46;61.34;100095.50;4977531;28;20027;-22
2022/06/09 03:51:15;;;;;;;1.00;1.00;;;;;;;16.47;61.59;100096.41;4977137;28;20424;-21
2022/06/09 03:53:41;;;;;;;1.23;1.15;;;;;;;16.40;61.97;100103.75;4984098;28;20436;-21
2022/06/09 03:56:12;;;;;;;1.40;1.17;;;;;;;16.41;61.60;100098.38;4979333;28;20025;-21
2022/06/09 03:58:38;;;;;;;0.98;0.95;;;;;;;16.41;61.57;100097.53;4981719;28;20400;-21
2022/06/09 04:01:03;;;;;;;1.02;1.00;;;;;;;16.38;61.57;100095.81;4984034;28;20038;-21
2022/06/09 04:03:30;;;;;;;1.42;1.33;;;;;;;16.40;61.48;100106.41;4983237;28;20042;-22
2022/06/09 04:05:56;;;;;;;1.52;1.15;;;;;;;16.35;61.71;100108.41;4983214;28;20030;-23
2022/06/09 04:08:21;;;;;;;1.45;1.35;;;;;;;16.37;62.03;100111.88;4963213;28;20137;-21
2022/06/09 04:10:48;;;;;;;1.25;1.15;;;;;;;16.37;61.91;100117.22;4983442;28;20027;-21
2022/06/09 04:13:15;;;;;;;1.67;1.23;;;;;;;16.35;62.32;100119.06;4981368;28;20031;-21
2022/06/09 04:15:40;;;;;;;1.85;1.35;;;;;;;16.35;61.92;100119.06;4979555;28;20030;-22
2022/06/09 04:18:06;;;;;;;1.98;1.45;;;;;;;16.35;61.79;100119.06;4967225;28;20078;-21
2022/06/09 04:20:32;;;;;;;1.73;1.27;;;;;;;16.36;61.86;100120.78;4979719;28;20105;-21
2022/06/09 04:22:57;;;;;;;3.28;1.30;;;;;;;16.37;61.79;100123.38;4980436;28;20085;-22
2022/06/09 04:25:23;;;;;;;1.08;1.02;;;;;;;16.38;61.71;100121.59;4967160;28;20042;-22
2022/06/09 04:27:48;;;;;;;1.52;1.20;;;;;;;16.37;61.71;100126.03;4969668;28;20034;-21
2022/06/09 04:30:14;;;;;;;2.30;1.20;;;;;;;16.36;61.21;100126.97;4980024;28;20023;-21
2022/06/09 04:32:39;;;;;;;1.45;1.30;;;;;;;16.36;61.93;100129.63;4969519;28;20035;-21
2022/06/09 04:35:05;;;;;;;1.85;1.52;;;;;;;16.36;61.71;100126.97;4981518;28;20036;-21
2022/06/09 04:40:14;;;;;;;1.92;1.60;;;;;;;16.37;61.85;100120.72;4985119;28;20042;-22
2022/06/09 04:42:40;;;;;;;1.60;1.38;;;;;;;16.39;62.06;100125.97;4987646;28;20058;-21
2022/06/09 04:45:06;;;;;;;1.73;1.63;;;;;;;16.39;62.51;100131.31;4973041;28;20057;-21
2022/06/09 04:47:31;;;;;;;1.50;1.40;;;;;;;16.40;62.49;100133.03;4989029;28;20093;-21
2022/06/09 04:49:57;;;;;;;2.17;1.50;;;;;;;16.42;63.14;100133.84;4989586;28;20069;-21
2022/06/09 04:52:22;;;;;;;1.70;1.60;;;;;;;16.42;62.73;100125.84;4987402;28;20045;-21
2022/06/09 04:54:47;;;;;;;3.40;1.95;;;;;;;16.42;62.40;100125.84;4972406;28;20027;-22
2022/06/09 04:57:13;;;;;;;2.00;1.80;;;;;;;16.43;63.05;100132.91;4984127;28;20081;-21
2022/06/09 04:59:38;;;;;;;2.08;1.98;;;;;;;16.45;63.00;100133.72;4971718;28;20074;-21
2022/06/09 05:02:04;;;;;;;2.00;1.77;;;;;;;16.50;62.65;100134.38;4981914;28;20114;-22
2022/06/09 05:04:29;;;;;;;2.50;1.80;;;;;;;16.50;63.00;100138.81;4969857;28;20045;-22
2022/06/09 05:06:54;;;;;;;2.03;1.92;;;;;;;16.51;63.24;100136.09;4979550;28;21118;-21
2022/06/09 05:09:20;;;;;;;2.30;2.10;;;;;;;16.55;64.06;100139.50;4972879;28;20030;-21
2022/06/09 05:11:45;;;;;;;1.95;1.85;;;;;;;16.55;63.19;100137.69;4979633;28;20035;-21
2022/06/09 05:14:12;;;;;;;2.70;2.50;;;;;;;16.57;63.77;100139.44;4985429;28;20040;-21
2022/06/09 05:16:38;;;;;;;2.42;2.22;;;;;;;16.58;63.36;100147.38;4951939;28;20030;-22
2022/06/09 05:19:03;;;;;;;3.70;2.30;;;;;;;16.62;63.41;100164.06;4980902;28;20108;-21
2022/06/09 05:21:29;;;;;;;2.20;2.00;;;;;;;16.63;63.77;100156.00;4980602;28;20464;-21
2022/06/09 05:23:54;;;;;;;3.13;2.10;;;;;;;16.67;62.76;100159.41;4980651;28;20026;-21
2022/06/09 05:26:21;;;;;;;3.00;2.05;;;;;;;16.70;63.87;100166.41;4980104;28;20488;-21
2022/06/09 05:28:46;;;;;;;3.15;2.40;;;;;;;16.71;64.71;100157.50;4971488;28;20142;-21
2022/06/09 05:31:12;;;;;;;2.55;2.00;;;;;;;16.77;62.86;100159.88;4981264;28;20038;-21
2022/06/09 05:33:37;;;;;;;2.42;2.22;;;;;;;16.81;64.21;100166.81;4982932;28;20022;-21
2022/06/09 05:36:02;;;;;;;2.30;2.17;;;;;;;16.84;63.59;100168.47;4983949;28;20030;-22
2022/06/09 05:46:41;;;;;;;4.57;2.70;;;;;;;16.92;66.58;100179.66;4980494;28;20397;-22
2022/06/09 05:49:08;;;;;;;4.25;2.38;;;;;;;16.99;64.76;100194.44;4964344;28;20022;-21
2022/06/09 05:51:34;;;;;;;2.40;2.20;;;;;;;16.99;65.85;100194.44;4984580;28;20477;-23
2022/06/09 05:53:59;;;;;;;2.72;2.53;;;;;;;17.03;65.69;100204.03;4987134;28;20081;-23
2022/06/09 05:56:25;;;;;;;3.20;3.00;;;;;;;17.05;64.11;100202.16;4962469;28;20437;-23
2022/06/09 05:58:50;;;;;;;2.92;2.67;;;;;;;17.05;65.69;100210.16;4966968;28;20023;-22
2022/06/09 06:01:16;;;;;;;3.45;2.75;;;;;;;17.08;66.15;100213.66;4983581;28;20041;-23
2022/06/09 06:03:42;;;;;;;2.88;2.55;;;;;;;17.08;66.26;100217.19;4982939;28;20688;-22
2022/06/09 06:08:51;;;;;;;2.75;2.47;;;;;;;17.16;65.73;100220.38;4973803;28;20053;-22
2022/06/09 06:11:17;;;;;;;3.30;3.00;;;;;;;17.21;64.01;100224.63;4968064;28;20489;-22
2022/06/09 06:13:44;;;;;;;2.70;2.50;;;;;;;17.24;64.13;100230.69;4971252;28;20267;-22
2022/06/09 06:16:09;;;;;;;2.78;2.58;;;;;;;17.27;65.19;100240.34;4969212;28;20034;-22
2022/06/09 06:18:35;;;;;;;2.97;2.70;;;;;;;17.28;64.34;100229.59;4982266;28;20034;-22
2022/06/09 06:21:00;;;;;;;2.97;2.40;;;;;;;17.32;64.96;100241.00;4982605;28;20034;-22
2022/06/09 06:23:27;;;;;;;3.75;2.80;;;;;;;17.38;64.19;100242.53;4967532;28;20030;-22
2022/06/09 06:25:53;;;;;;;3.53;2.70;;;;;;;17.42;65.43;100246.78;4978047;28;20029;-22
2022/06/09 06:28:18;;;;;;;3.83;2.78;;;;;;;17.47;64.95;100249.25;4985277;28;20019;-22
2022/06/09 06:30:43;;;;;;;4.35;2.67;;;;;;;17.49;63.89;100242.03;4983214;28;20403;-22
2022/06/09 06:33:09;;;;;;;4.20;3.05;;;;;;;17.55;64.04;100257.78;4980349;28;20027;-22
2022/06/09 06:35:34;;;;;;;3.30;3.10;;;;;;;17.57;63.49;100254.09;4983417;28;20464;-22
2022/06/09 06:38:00;;;;;;;2.85;2.65;;;;;;;17.65;65.00;100266.22;4972245;28;20145;-22
2022/06/09 06:40:25;;;;;;;2.95;2.75;;;;;;;17.64;64.46;100262.69;4983458;28;20037;-22
2022/06/09 06:42:51;;;;;;;4.10;3.70;;;;;;;17.70;63.58;100261.53;4984024;28;20042;-22
2022/06/09 06:45:17;;;;;;;3.30;3.00;;;;;;;17.76;63.49;100263.94;4982376;28;20544;-22
2022/06/09 06:47:42;;;;;;;4.93;3.80;;;;;;;17.78;64.03;100262.03;4971396;28;20030;-22
2022/06/09 06:50:10;;;;;;;5.07;3.13;;;;;;;17.83;63.67;100265.38;4987079;28;20112;-22
2022/06/09 06:52:35;;;;;;;3.33;3.03;;;;;;;17.87;63.71;100275.91;4988697;28;20461;-22
2022/06/09 06:55:01;;;;;;;4.30;3.38;;;;;;;17.92;63.93;100269.44;4980127;28;20065;-22
2022/06/09 06:57:26;;;;;;;3.58;3.28;;;;;;;17.97;63.27;100271.88;4983899;28;20066;-22
2022/06/09 06:59:51;;;;;;;4.78;3.55;;;;;;;18.03;63.44;100260.91;4978428;28;20666;-22
2022/06/09 07:02:18;;;;;;;4.30;3.10;;;;;;;18.10;63.71;100266.84;4982763;28;20415;-22
2022/06/09 07:04:44;;;;;;;3.53;3.22;;;;;;;18.15;63.46;100264.84;4968418;28;20800;-22
2022/06/09 07:07:09;;;;;;;3.67;2.95;;;;;;;18.21;63.19;100269.03;4970856;28;20489;-22
2022/06/09 07:09:34;;;;;;;3.92;3.53;;;;;;;18.27;63.59;100266.06;4984479;28;20054;-22
2022/06/09 07:11:59;;;;;;;5.57;3.30;;;;;;;18.33;63.42;100273.78;4983878;28;20045;-22
2022/06/09 07:14:25;;;;;;;4.13;3.72;;;;;;;18.44;63.09;100275.91;4983500;28;20100;-22
2022/06/09 07:16:51;;;;;;;4.70;4.05;;;;;;;18.53;62.87;100274.59;4980608;28;20062;-22
2022/06/09 07:19:16;;;;;;;4.82;3.83;;;;;;;18.59;62.75;100274.31;4977883;28;20025;-22
2022/06/09 07:21:42;;;;;;;5.05;4.30;;;;;;;18.67;62.46;100276.59;4984239;28;20023;-22
2022/06/09 07:24:08;;;;;;;4.60;3.97;;;;;;;18.75;62.25;100270.00;4979023;28;20014;-22
2022/06/09 07:26:33;;;;;;;6.25;4.55;;;;;;;18.81;62.27;100273.22;4980438;28;20031;-22
2022/06/09 07:28:59;;;;;;;4.22;3.85;;;;;;;18.88;61.95;100273.81;4968603;28;20524;-22
2022/06/09 07:31:25;;;;;;;4.43;4.03;;;;;;;18.97;62.05;100284.00;4978925;28;20038;-22
2022/06/09 07:33:50;;;;;;;4.80;4.40;;;;;;;19.01;61.99;100276.72;4981813;28;20498;-22
2022/06/09 07:36:20;;;;;;;5.90;4.50;;;;;;;19.09;62.03;100281.69;4976572;28;20030;-22
2022/06/09 07:38:46;;;;;;;4.77;4.03;;;;;;;19.21;61.47;100282.88;4980076;28;20031;-22
2022/06/09 07:41:12;;;;;;;4.80;4.40;;;;;;;19.31;61.49;100286.78;4981968;28;20098;-22
2022/06/09 07:43:37;;;;;;;5.13;4.63;;;;;;;19.40;61.00;100288.13;4974327;28;20417;-22
2022/06/09 07:46:03;;;;;;;6.65;4.65;;;;;;;19.47;61.19;100294.88;4980608;28;20062;-22
2022/06/09 07:48:28;;;;;;;5.00;4.43;;;;;;;19.53;61.12;100291.00;4980642;28;20454;-22
2022/06/09 07:50:54;;;;;;;4.78;4.38;;;;;;;19.66;60.74;100293.03;4981734;28;20023;-22
2022/06/09 07:53:20;;;;;;;5.10;4.70;;;;;;;19.77;61.04;100295.97;4970121;28;20085;-22
2022/06/09 07:55:46;;;;;;;5.72;5.10;;;;;;;19.93;60.80;100293.34;4954923;28;20030;-22
2022/06/09 07:58:12;;;;;;;6.18;4.60;;;;;;;19.96;60.20;100305.69;4984190;28;20077;-22
2022/06/09 08:00:39;;;;;;;4.85;4.38;;;;;;;20.00;60.07;100305.47;4983675;28;20485;-22
2022/06/09 08:03:05;;;;;;;4.57;4.18;;;;;;;20.09;60.14;100308.59;4975528;28;20022;-22
2022/06/09 08:05:32;;;;;;;5.47;4.68;;;;;;;20.19;60.39;100311.63;4979896;28;20555;-22
2022/06/09 08:07:57;;;;;;;5.05;4.65;;;;;;;20.30;59.82;100306.53;4978265;28;20030;-22
2022/06/09 08:10:25;;;;;;;4.20;3.80;;;;;;;20.48;60.29;100318.03;4987019;28;20030;-22
2022/06/09 08:12:55;;;;;;;4.70;4.30;;;;;;;20.63;60.02;100310.94;4984790;28;20027;-22
2022/06/09 08:15:24;;;;;;;5.05;4.65;;;;;;;20.79;59.54;100307.38;4985079;28;20096;-22
2022/06/09 08:17:49;;;;;;;5.55;4.80;;;;;;;20.83;58.91;100300.88;4970114;28;20026;-22
2022/06/09 08:20:15;;;;;;;4.80;4.10;;;;;;;20.94;58.80;100310.16;4983974;28;20030;-22
2022/06/09 08:22:40;;;;;;;5.40;4.30;;;;;;;21.02;58.47;100311.44;4978199;28;20049;-22
2022/06/09 08:25:07;;;;;;;5.45;4.43;;;;;;;21.13;58.76;100307.22;4982498;28;20106;-22
2022/06/09 08:27:33;;;;;;;4.20;3.75;;;;;;;21.24;58.35;100309.28;4979503;28;20031;-22
2022/06/09 08:29:59;;;;;;;4.85;3.90;;;;;;;21.37;58.71;100312.94;4970560;28;20030;-22
2022/06/09 08:32:24;;;;;;;4.97;4.53;;;;;;;21.49;58.79;100307.78;4984350;28;20023;-21
2022/06/09 08:34:49;;;;;;;4.28;3.92;;;;;;;21.58;58.63;100309.91;4981200;28;20086;-23
2022/06/09 08:37:14;;;;;;;4.75;4.30;;;;;;;21.70;58.33;100307.44;4982358;28;20064;-23
2022/06/09 08:39:40;;;;;;;4.78;4.20;;;;;;;21.76;57.64;100301.69;4980455;28;20035;-23
2022/06/09 08:42:22;;;;;;;4.30;4.00;;;;;;;21.85;57.31;100306.50;4980426;28;20061;-22
2022/06/09 08:44:54;;;;;;;4.20;3.90;;;;;;;21.95;57.15;100308.59;4981839;28;20165;-22
2022/06/09 08:47:34;;;;;;;4.30;3.92;;;;;;;22.04;57.00;100311.56;4971299;28;20033;-23
2022/06/09 08:50:20;;;;;;;4.68;4.15;;;;;;;22.10;56.96;100315.69;4982392;28;20015;-22
2022/06/09 08:53:08;;;;;;;4.70;4.03;;;;;;;22.16;56.35;100318.00;4976886;28;20045;-23
2022/06/09 08:55:55;;;;;;;4.18;3.88;;;;;;;22.18;55.98;100317.88;4980576;28;20026;-23
2022/06/09 08:58:28;;;;;;;5.32;4.55;;;;;;;22.14;56.05;100316.38;4973731;28;20512;-23
2022/06/09 09:01:11;;;;;;;4.20;3.83;;;;;;;22.10;56.48;100321.06;4981347;28;20392;-23
2022/06/09 09:03:41;;;;;;;4.97;4.10;;;;;;;22.08;56.79;100322.13;4982696;28;20046;-23
2022/06/09 09:06:09;;;;;;;5.65;4.25;;;;;;;22.07;56.46;100336.50;4984173;28;20122;-23
2022/06/09 09:08:36;;;;;;;4.47;4.07;;;;;;;22.02;56.50;100332.28;4980629;28;20097;-23
2022/06/09 09:11:13;;;;;;;4.78;4.25;;;;;;;22.01;56.87;100332.38;4971738;28;20410;-22
2022/06/09 09:14:15;;;;;;;4.22;3.90;;;;;;;21.96;56.43;100340.72;4979051;28;20052;-23
2022/06/09 09:16:48;;;;;;;4.80;4.40;;;;;;;21.94;56.07;100341.78;4978810;28;20056;-23
2022/06/09 09:19:42;;;;;;;5.53;3.78;;;;;;;21.89;56.27;100348.31;4966663;28;20051;-23
2022/06/09 09:22:19;;;;;;;6.90;4.10;;;;;;;21.87;56.05;100346.69;4978684;28;20649;-23
2022/06/09 09:25:07;;;;;;;4.32;4.03;;;;;;;21.84;55.99;100358.44;4958926;28;20055;-23
2022/06/09 09:27:38;;;;;;;5.00;4.55;;;;;;;21.81;55.91;100353.28;4976624;28;20050;-23
2022/06/09 09:30:03;;;;;;;4.72;4.03;;;;;;;21.81;55.96;100352.41;4982340;28;20076;-23
2022/06/09 09:32:37;;;;;;;4.85;4.28;;;;;;;21.79;55.84;100355.19;4987482;28;20385;-23
2022/06/09 09:35:07;;;;;;;5.03;4.15;;;;;;;21.77;55.27;100363.34;4958074;28;20037;-22
2022/06/09 09:37:38;;;;;;;4.32;3.90;;;;;;;21.76;55.51;100360.75;4960399;28;20030;-23
2022/06/09 09:40:24;;;;;;;5.55;4.63;;;;;;;21.75;56.40;100364.41;4979585;28;20027;-23
2022/06/09 09:42:51;;;;;;;4.40;4.07;;;;;;;21.72;56.36;100365.41;4978239;28;20390;-23
2022/06/09 09:45:34;;;;;;;5.10;4.65;;;;;;;21.70;55.65;100366.47;4982097;28;20180;-22
2022/06/09 09:48:02;;;;;;;5.85;4.97;;;;;;;21.68;55.54;100363.88;4978300;28;20030;-21
2022/06/09 09:50:36;;;;;;;4.78;4.30;;;;;;;21.67;55.53;100367.50;4982264;28;20072;-22
2022/06/09 09:53:22;;;;;;;5.22;4.72;;;;;;;21.64;55.40;100373.91;4981361;28;20019;-23
2022/06/09 09:56:10;;;;;;;4.80;4.10;;;;;;;21.63;55.13;100371.31;4975301;28;20062;-23
2022/06/09 09:58:46;;;;;;;5.38;4.88;;;;;;;21.60;55.27;100380.44;4983022;28;20449;-23
2022/06/09 10:01:14;;;;;;;5.82;4.75;;;;;;;21.62;55.24;100385.72;4981279;28;20041;-23
2022/06/09 10:09:31;;;;;;;4.43;3.90;;;;;;;21.54;55.03;100402.25;4983122;28;20041;-23
2022/06/09 10:12:02;;;;;;;4.82;4.32;;;;;;;21.52;55.17;100398.81;4983459;28;20031;-23
2022/06/09 10:15:06;;;;;;;5.25;4.75;;;;;;;21.50;55.74;100406.06;4960239;28;20034;-23
2022/06/09 10:17:58;;;;;;;4.57;4.18;;;;;;;21.47;55.50;100404.44;4961148;28;20092;-23
2022/06/09 10:20:47;;;;;;;4.55;4.18;;;;;;;21.41;55.84;100427.13;4981642;28;20026;-23
2022/06/09 10:23:45;;;;;;;5.38;4.88;;;;;;;21.38;55.64;100421.09;4981858;28;20101;-22
2022/06/09 10:26:31;;;;;;;5.10;4.45;;;;;;;21.36;55.71;100429.22;4979885;28;20526;-23
2022/06/09 10:29:16;;;;;;;4.70;4.30;;;;;;;21.34;55.62;100439.19;4969075;28;20046;-22
2022/06/09 10:31:53;;;;;;;4.30;3.97;;;;;;;21.32;55.94;100429.50;4982560;28;20014;-23
2022/06/09 10:34:39;;;;;;;4.97;4.53;;;;;;;21.28;55.77;100440.41;4969239;28;20449;-23
2022/06/09 10:37:52;;;;;;;5.15;4.75;;;;;;;21.25;55.79;100437.91;4981625;28;20393;-23
2022/06/09 10:40:18;;;;;;;4.93;4.43;;;;;;;21.23;55.60;100444.31;4939134;28;20046;-23
2022/06/09 10:43:25;;;;;;;5.00;4.55;;;;;;;21.19;55.65;100445.44;4964453;28;20057;-22
2022/06/09 10:45:54;;;;;;;5.45;4.90;;;;;;;21.17;55.80;100450.03;4970790;28;20436;-23
2022/06/09 10:57:04;;;;;;;5.82;5.32;;;;;;;21.05;55.86;100473.91;4972409;28;20087;-22
2022/06/09 10:59:53;;;;;;;5.43;4.88;;;;;;;21.00;55.85;100475.97;4981592;28;20034;-23
2022/06/09 11:02:21;;;;;;;5.65;4.57;;;;;;;20.93;55.86;100474.59;4978391;28;20014;-21
2022/06/09 11:04:48;;;;;;;4.85;4.22;;;;;;;20.86;55.97;100480.28;4945005;28;20050;-23
2022/06/09 11:07:32;;;;;;;5.20;4.80;;;;;;;20.85;56.15;100489.28;4983688;28;20093;-23
2022/06/09 11:10:11;;;;;;;4.93;4.53;;;;;;;20.80;56.02;100493.16;4967306;28;20065;-22
2022/06/09 11:12:48;;;;;;;5.25;4.50;;;;;;;20.74;56.44;100499.72;4981471;28;20459;-22
2022/06/09 11:15:34;;;;;;;5.57;5.03;;;;;;;20.68;56.63;100495.56;4979361;28;20026;-23
2022/06/09 11:18:06;;;;;;;5.32;4.82;;;;;;;20.63;56.75;100501.16;4975174;28;20034;-22
2022/06/09 11:20:44;;;;;;;5.88;4.95;;;;;;;20.58;56.99;100499.69;4962090;28;20396;-23
2022/06/09 11:23:44;;;;;;;5.28;4.78;;;;;;;20.52;57.38;100495.53;4987036;28;20109;-23
2022/06/09 11:26:15;;;;;;;6.00;4.80;;;;;;;20.44;57.56;100495.06;4983165;28;20039;-22
2022/06/09 11:29:16;;;;;;;5.28;4.78;;;;;;;20.40;57.53;100498.88;4978484;28;20038;-22
2022/06/09 11:31:42;;;;;;;4.72;4.38;;;;;;;20.34;57.55;100495.53;4967512;28;20034;-22
2022/06/09 11:34:12;;;;;;;5.47;5.00;;;;;;;20.30;57.74;100493.97;4981440;28;20400;-22
2022/06/09 11:36:52;;;;;;;6.50;5.00;;;;;;;20.23;58.37;100493.44;4961685;28;20458;-22
2022/06/09 11:39:36;;;;;;;5.60;5.10;;;;;;;20.18;58.36;100486.59;4969837;28;20041;-23
2022/06/09 11:42:08;;;;;;;5.82;5.28;;;;;;;20.12;58.31;100490.47;4980387;28;20389;-22
2022/06/09 11:44:41;;;;;;;5.50;5.07;;;;;;;20.08;58.88;100495.09;4964813;28;20046;-22
2022/06/09 11:47:13;;;;;;;6.35;5.30;;;;;;;20.04;58.55;100488.19;4971682;28;20173;-21
2022/06/09 11:49:58;;;;;;;5.57;4.80;;;;;;;20.00;58.88;100489.28;4974228;28;20354;-22
2022/06/09 11:52:46;;;;;;;5.50;5.00;;;;;;;19.97;58.78;100486.72;4980313;28;20460;-22
2022/06/09 11:55:57;;;;;;;6.30;5.70;;;;;;;19.94;59.03;100490.44;4978988;28;20027;-22
2022/06/09 11:58:33;;;;;;;5.82;5.25;;;;;;;19.92;58.95;100484.31;4962222;28;20041;-22
2022/06/09 12:01:31;;;;;;;5.80;5.30;;;;;;;19.91;59.04;100476.38;4979626;28;20041;-21
2022/06/09 12:04:12;;;;;;;6.68;5.15;;;;;;;19.90;59.07;100483.50;4969686;28;20053;-21
2022/06/09 12:06:46;;;;;;;5.47;4.93;;;;;;;19.91;59.48;100487.06;4979420;28;20410;-22
2022/06/09 12:09:25;;;;;;;5.63;5.05;;;;;;;19.90;60.04;100490.69;4981084;28;20041;-21